Terminal Aerodrome Forecast
Issued by NWS

Home | Current Version | Previous Version | Text Only | Print | Product List | Glossary On
Versions: 1 2 3 4 5 6 7 8 9 10 11 12 13 14 15
000
FTUS43 KGRR 280540
TAFJXN
TAF
KJXN 280540Z 2806/2906 12003KT P6SM BKN150
     FM281400 10006KT P6SM VCSH BKN080
     FM282200 08005KT 4SM BR VCSH OVC040=

USA.gov is the U.S. government's official web portal to all federal, state and local government web resources and services.